createdAt,value
2023-01-18T01:31:09.750Z,99133.73
2023-01-18T01:33:41.405Z,99133.22
2023-01-18T01:36:14.921Z,99133.02
2023-01-18T01:38:46.284Z,99121.43
2023-01-18T01:41:20.643Z,99124.27
2023-01-18T01:43:56.045Z,99111.84
2023-01-18T01:46:37.770Z,99110.44
2023-01-18T01:49:40.955Z,99105.36
2023-01-18T01:52:16.919Z,99101.08
2023-01-18T01:54:54.519Z,99101.20
2023-01-18T01:57:29.757Z,99098.48
2023-01-18T02:00:23.350Z,99102.88
2023-01-18T02:03:05.864Z,99109.98
2023-01-18T02:05:45.626Z,99103.00
2023-01-18T02:08:18.280Z,99101.64
2023-01-18T02:10:49.764Z,99095.16
2023-01-18T02:13:21.888Z,99094.12
2023-01-18T02:18:48.818Z,99085.16
2023-01-18T02:21:22.746Z,99089.77
2023-01-18T02:24:21.068Z,99097.39
2023-01-18T02:27:13.897Z,99079.52
2023-01-18T02:30:02.131Z,99089.04
2023-01-18T02:32:50.251Z,99083.92
2023-01-18T02:35:32.493Z,99074.20
2023-01-18T02:38:11.063Z,99075.24
2023-01-18T02:40:57.084Z,99078.28
2023-01-18T02:43:37.823Z,99067.09
2023-01-18T02:46:29.336Z,99065.72
2023-01-18T02:49:02.991Z,99065.52
2023-01-18T02:51:33.002Z,99059.05
2023-01-18T02:54:04.496Z,99055.48
2023-01-18T02:56:43.165Z,99057.69
2023-01-18T02:59:29.491Z,99046.48
2023-01-18T03:02:19.105Z,99045.77
2023-01-18T03:04:55.199Z,99043.69
2023-01-18T03:07:43.451Z,99042.64
2023-01-18T03:10:14.305Z,99037.52
2023-01-18T03:13:09.878Z,99035.96
2023-01-18T03:15:51.669Z,99041.08
2023-01-18T03:18:44.076Z,99034.48
2023-01-18T03:21:16.445Z,99029.16
2023-01-18T03:23:46.447Z,99037.84
2023-01-18T03:26:19.148Z,99051.75
2023-01-18T03:29:12.708Z,99051.75
2023-01-18T03:32:23.488Z,99048.31
2023-01-18T03:35:00.288Z,99046.95
2023-01-18T03:37:37.658Z,99060.03
2023-01-18T03:40:18.632Z,99057.83
2023-01-18T03:43:16.917Z,99053.55
2023-01-18T03:45:48.406Z,99048.43
2023-01-18T03:48:18.224Z,99054.91
2023-01-18T03:50:54.586Z,99043.19
2023-01-18T03:53:32.902Z,99045.39
2023-01-18T03:56:10.228Z,99039.11
2023-01-18T03:58:42.400Z,99035.88
2023-01-18T04:01:15.003Z,99034.31
2023-01-18T04:03:46.433Z,99034.31
2023-01-18T04:06:16.231Z,99044.88
2023-01-18T04:08:46.714Z,99046.86
2023-01-18T04:11:16.383Z,99044.46
2023-01-18T04:13:46.229Z,99032.34
2023-01-18T04:16:16.860Z,99030.25
2023-01-18T04:18:46.464Z,99033.50
2023-01-18T04:21:16.122Z,99038.73
2023-01-18T04:23:45.940Z,99041.97
2023-01-18T04:26:16.807Z,99048.98
2023-01-18T04:28:47.091Z,99047.09
2023-01-18T04:31:17.176Z,99050.66
2023-01-18T04:33:50.855Z,99040.61
2023-01-18T04:36:21.275Z,99024.81
2023-01-18T04:38:55.417Z,99028.17
2023-01-18T04:41:25.424Z,99036.85
2023-01-18T04:43:56.448Z,99030.37
2023-01-18T04:46:27.535Z,99026.60
2023-01-18T04:48:57.020Z,99040.20
2023-01-18T04:51:27.261Z,99048.16
2023-01-18T04:53:57.652Z,99047.12
2023-01-18T04:56:27.468Z,99053.60
2023-01-18T04:58:57.211Z,99040.84
2023-01-18T05:01:29.600Z,99031.64
2023-01-18T05:04:01.623Z,99033.00
2023-01-18T05:06:31.892Z,99034.47
2023-01-18T05:09:02.144Z,99015.75
2023-01-18T05:11:32.062Z,99018.78
2023-01-18T05:14:03.205Z,99014.81
2023-01-18T05:16:34.551Z,99015.97
2023-01-18T05:19:05.107Z,99001.84
2023-01-18T05:21:34.731Z,99002.47
2023-01-18T05:24:05.417Z,99004.36
2023-01-18T05:26:35.496Z,99004.25
2023-01-18T05:29:05.520Z,99007.28
2023-01-18T05:31:36.300Z,99009.80
2023-01-18T05:34:06.156Z,99002.47
2023-01-18T05:36:37.534Z,98990.02
2023-01-18T05:39:12.551Z,98985.56
2023-01-18T05:41:43.505Z,98989.44
2023-01-18T05:44:14.029Z,98984.31
2023-01-18T05:46:45.747Z,98980.87
2023-01-18T05:49:15.507Z,98967.58
2023-01-18T05:51:45.554Z,98964.96
2023-01-18T05:54:16.265Z,98966.64
2023-01-18T05:56:45.739Z,98962.34
2023-01-18T05:59:15.804Z,98956.17
2023-01-18T06:01:46.113Z,98955.76
2023-01-18T06:04:16.110Z,98934.62
2023-01-18T06:06:46.704Z,98933.88
2023-01-18T06:09:17.130Z,98936.19
2023-01-18T06:11:47.246Z,98930.95
2023-01-18T06:14:17.650Z,98931.89
2023-01-18T06:16:47.333Z,98932.84
2023-01-18T06:19:17.607Z,98928.86
2023-01-18T06:21:47.567Z,98943.94
2023-01-18T06:24:18.161Z,98951.37
2023-01-18T06:26:48.767Z,98950.11
2023-01-18T06:29:19.879Z,98944.98
2023-01-18T06:31:49.751Z,98941.00
2023-01-18T06:34:19.273Z,98940.27
2023-01-18T06:36:51.370Z,98945.19
2023-01-18T06:39:21.513Z,98943.92
2023-01-18T06:41:51.289Z,98948.64
2023-01-18T06:44:20.168Z,98944.13
2023-01-18T06:46:51.235Z,98937.95
2023-01-18T06:49:21.783Z,98933.34
2023-01-18T06:51:53.127Z,98941.52
2023-01-18T06:54:24.301Z,98947.06
2023-01-18T06:56:55.305Z,98944.99
2023-01-18T06:59:25.116Z,98932.08
2023-01-18T07:02:01.580Z,98931.90
2023-01-18T07:04:35.905Z,98935.45
2023-01-18T07:07:06.660Z,98931.48
2023-01-18T07:09:37.531Z,98929.27
2023-01-18T07:12:07.398Z,98932.41
2023-01-18T07:14:36.837Z,98930.84
2023-01-18T07:17:06.089Z,98934.92
2023-01-18T07:19:36.371Z,98934.19
2023-01-18T07:22:06.175Z,98924.97
2023-01-18T07:24:35.975Z,98926.11
2023-01-18T07:27:05.683Z,98940.89
2023-01-18T07:29:37.328Z,98936.59
2023-01-18T07:32:07.969Z,98929.56
2023-01-18T07:34:38.304Z,98928.52
2023-01-18T07:37:07.152Z,98917.92
2023-01-18T07:39:36.577Z,98928.09
2023-01-18T07:42:07.588Z,98910.06
2023-01-18T07:44:37.471Z,98909.33
2023-01-18T07:47:07.994Z,98914.56
2023-01-18T07:49:38.815Z,98904.50
2023-01-18T07:52:08.283Z,98910.78
2023-01-18T07:54:38.388Z,98909.21
2023-01-18T07:57:10.519Z,98910.58
2023-01-18T10:30:57.354Z,98808.35
2023-01-18T10:33:49.050Z,98802.81
2023-01-18T10:36:58.024Z,98788.73
2023-01-18T10:40:16.298Z,98799.28
2023-01-18T10:43:30.563Z,98796.28
2023-01-18T10:46:46.075Z,98792.97
2023-01-18T10:49:43.869Z,98797.88
2023-01-18T10:52:33.563Z,98795.09
2023-01-18T10:55:12.000Z,98789.83
2023-01-18T10:57:55.463Z,98788.85
2023-01-18T11:00:35.414Z,98786.51
2023-01-18T11:03:05.402Z,98779.98
2023-01-18T11:05:38.904Z,98791.30
2023-01-18T11:08:15.862Z,98777.20
2023-01-18T11:10:44.678Z,98781.37
2023-01-18T11:13:34.666Z,98784.71
2023-01-18T11:16:13.999Z,98789.19
2023-01-18T11:19:01.952Z,98783.81
2023-01-18T11:21:43.589Z,98785.03
2023-01-18T11:24:21.650Z,98791.70
2023-01-18T11:26:59.779Z,98791.78
2023-01-18T11:29:36.990Z,98788.30
2023-01-18T11:34:53.376Z,98782.61
2023-01-18T11:37:37.584Z,98783.07
2023-01-18T11:40:27.546Z,98780.72
2023-01-18T11:43:13.323Z,98782.47
2023-01-18T11:46:14.179Z,98793.47
2023-01-18T11:48:52.309Z,98787.32
2023-01-18T11:51:30.051Z,98772.48
2023-01-18T11:54:33.225Z,98774.22
2023-01-18T11:57:02.856Z,98787.73
2023-01-18T11:59:42.781Z,98769.52
2023-01-18T12:02:54.051Z,98776.80
2023-01-18T12:05:37.096Z,98767.38
2023-01-18T12:08:31.098Z,98767.52
2023-01-18T12:11:17.806Z,98769.02
2023-01-18T12:13:52.108Z,98774.94
2023-01-18T12:16:25.825Z,98778.88
2023-01-18T12:19:25.331Z,98775.15
2023-01-18T12:22:24.954Z,98773.85
2023-01-18T12:25:31.719Z,98777.80
2023-01-18T12:28:19.787Z,98774.59
2023-01-18T12:31:20.342Z,98774.13
2023-01-18T12:33:56.284Z,98774.83
2023-01-18T12:36:54.420Z,98775.20
2023-01-18T12:39:29.394Z,98776.64
2023-01-18T12:42:08.399Z,98784.61
2023-01-18T12:44:48.835Z,98781.11
2023-01-18T12:47:51.719Z,98780.87
2023-01-18T12:50:27.873Z,98794.32
2023-01-18T12:53:00.187Z,98776.30
2023-01-18T12:55:31.213Z,98788.62
2023-01-18T12:58:02.087Z,98793.55
2023-01-18T13:00:40.527Z,98790.05
2023-01-18T13:03:12.659Z,98787.62
2023-01-18T13:05:57.604Z,98779.11
2023-01-18T13:08:50.379Z,98778.88
2023-01-18T13:11:35.795Z,98793.09
2023-01-18T13:14:31.840Z,98790.66
2023-01-18T13:17:34.949Z,98788.75
2023-01-18T13:20:17.794Z,98783.05
2023-01-18T13:23:02.781Z,98788.28
2023-01-18T13:25:46.699Z,98787.75
2023-01-18T13:28:24.028Z,98772.41
2023-01-18T13:31:03.599Z,98769.44
2023-01-18T13:33:58.795Z,98782.58
2023-01-18T13:36:29.489Z,98783.72
2023-01-18T13:39:06.338Z,98791.39
2023-01-18T13:41:35.440Z,98785.91
2023-01-18T13:44:12.741Z,98806.73
2023-01-18T13:46:42.468Z,98807.80
2023-01-18T13:49:36.081Z,98813.58
2023-01-18T13:51:59.223Z,98811.91
2023-01-18T13:54:34.369Z,98818.28
2023-01-18T13:57:20.448Z,98805.20
2023-01-18T13:59:51.323Z,98817.58
2023-01-18T14:02:39.225Z,98823.42
2023-01-18T14:05:25.545Z,98830.56
2023-01-18T14:08:02.604Z,98819.92
2023-01-18T14:10:37.508Z,98821.05
2023-01-18T14:13:11.095Z,98824.63
2023-01-18T14:15:50.034Z,98822.19
2023-01-18T14:18:26.340Z,98820.52
2023-01-18T14:21:44.540Z,98808.73
2023-01-18T14:24:22.262Z,98818.61
2023-01-18T14:26:55.487Z,98812.61
2023-01-18T14:29:41.588Z,98814.31
2023-01-18T14:32:15.789Z,98812.08
2023-01-18T14:34:45.214Z,98807.67
2023-01-18T14:37:31.263Z,98805.77
2023-01-18T14:40:07.207Z,98806.60
2023-01-18T14:42:52.500Z,98824.92
2023-01-18T14:45:37.645Z,98815.34
2023-01-18T14:48:17.085Z,98824.63
2023-01-18T14:50:47.036Z,98815.88
2023-01-18T14:53:30.145Z,98822.82
2023-01-18T14:56:21.371Z,98835.67
2023-01-18T14:59:03.367Z,98829.03
2023-01-18T15:01:38.995Z,98838.61
2023-01-18T15:04:27.275Z,98851.76
2023-01-18T15:07:03.407Z,98857.77
2023-01-18T15:09:36.607Z,98858.94
2023-01-18T15:12:09.200Z,98862.50
2023-01-18T15:14:40.897Z,98859.47
2023-01-18T15:17:11.787Z,98853.22
2023-01-18T15:19:44.542Z,98862.58
2023-01-18T15:22:16.379Z,98867.22
2023-01-18T15:24:45.961Z,98873.52
2023-01-18T15:27:17.887Z,98865.55
2023-01-18T15:29:54.691Z,98866.14
2023-01-18T15:32:33.652Z,98874.36
2023-01-18T15:35:16.727Z,98871.92
2023-01-18T15:37:49.007Z,98870.85
2023-01-18T15:40:23.235Z,98878.46
2023-01-18T15:43:04.545Z,98876.03
2023-01-18T15:45:39.110Z,98878.46
2023-01-18T15:48:22.678Z,98887.51
2023-01-18T15:50:57.917Z,98881.50
2023-01-18T15:53:32.692Z,98876.33
2023-01-18T15:56:05.972Z,98870.55
2023-01-18T15:58:56.053Z,98859.07
2023-01-18T16:01:31.717Z,98876.03
2023-01-18T16:04:03.882Z,98864.54
2023-01-18T16:06:37.469Z,98861.50
2023-01-18T16:09:18.420Z,98866.67
2023-01-18T16:11:56.266Z,98863.64
2023-01-18T16:14:33.981Z,98861.44
2023-01-18T16:17:21.190Z,98866.91
2023-01-18T16:19:54.005Z,98887.14
2023-01-18T16:22:35.664Z,98883.87
2023-01-18T16:25:10.064Z,98881.66
2023-01-18T16:27:56.979Z,98884.40
2023-01-18T16:30:37.410Z,98889.58
2023-01-18T16:33:14.034Z,98903.76
2023-01-18T16:35:44.387Z,98893.68
2023-01-18T16:38:15.503Z,98906.73
2023-01-18T16:40:48.729Z,98907.56
2023-01-18T16:43:32.485Z,98907.56
2023-01-18T16:46:08.595Z,98914.70
2023-01-18T16:48:38.914Z,98904.30
2023-01-18T16:51:13.995Z,98913.88
2023-01-18T16:53:43.949Z,98916.61
2023-01-18T16:56:16.525Z,98920.52
2023-01-18T16:58:52.996Z,98925.66
2023-01-18T17:01:33.555Z,98932.00
2023-01-18T17:04:09.222Z,98929.46
2023-01-18T17:06:39.054Z,98925.35
2023-01-18T17:09:23.704Z,98930.62
2023-01-18T17:11:52.952Z,98944.61
2023-01-18T17:14:22.683Z,98931.12
2023-01-18T17:16:52.147Z,98950.83
2023-01-18T17:19:22.751Z,98936.83
2023-01-18T17:21:51.711Z,98949.15
2023-01-18T17:24:24.349Z,98930.83
2023-01-18T17:26:53.494Z,98956.63
2023-01-18T17:29:23.238Z,98967.58
2023-01-18T17:31:55.376Z,98951.66
2023-01-18T17:34:31.050Z,98968.08
2023-01-18T17:37:03.137Z,98967.24
2023-01-18T17:39:43.840Z,98982.00
2023-01-18T17:42:05.725Z,98990.20
2023-01-18T17:44:37.472Z,99004.19
2023-01-18T17:47:08.076Z,99006.40
2023-01-18T17:49:37.493Z,98997.35
2023-01-18T17:52:07.243Z,98996.31
2023-01-18T17:54:37.822Z,98997.98
2023-01-18T17:57:09.347Z,99000.73
2023-01-18T17:59:38.621Z,99016.39
2023-01-18T18:02:10.539Z,99009.23
2023-01-18T18:04:39.762Z,99019.89
2023-01-18T18:07:08.773Z,99033.87
2023-01-18T18:09:40.500Z,99026.73
2023-01-18T18:12:10.957Z,99036.00
2023-01-18T18:14:41.046Z,99041.48
2023-01-18T18:17:11.405Z,99042.20
2023-01-18T18:19:41.497Z,99053.69
2023-01-18T18:22:10.998Z,99065.17
2023-01-18T18:24:40.959Z,99072.31
2023-01-18T18:27:10.636Z,99060.64
2023-01-18T18:29:40.139Z,99062.08
2023-01-18T18:32:09.574Z,99047.10
2023-01-18T18:34:38.862Z,99052.34
2023-01-18T18:37:08.162Z,99053.19
2023-01-18T18:39:37.346Z,99043.30
2023-01-18T18:42:06.297Z,99044.90
2023-01-18T18:44:36.248Z,99038.59
2023-01-18T18:47:06.814Z,99038.81
2023-01-18T18:49:36.420Z,99047.26
2023-01-18T18:52:05.597Z,99045.25
2023-01-18T18:54:34.906Z,99057.80
2023-01-18T18:57:04.415Z,99048.14
2023-01-18T18:59:33.959Z,99055.73
2023-01-18T19:02:02.969Z,99057.64
2023-01-18T19:04:32.713Z,99069.12
2023-01-18T19:07:02.946Z,99062.50
2023-01-18T19:09:32.640Z,99078.84
2023-01-18T19:12:01.534Z,99097.09
2023-01-18T19:14:31.231Z,99091.53
2023-01-18T19:17:00.172Z,99092.38
2023-01-18T19:19:29.444Z,99096.17
2023-01-18T19:21:58.060Z,99110.92
2023-01-18T19:24:30.280Z,99116.61
2023-01-18T19:26:59.165Z,99123.98
2023-01-18T19:29:29.657Z,99125.36
2023-01-18T19:31:59.192Z,99123.98
2023-01-18T19:34:30.008Z,99123.68
2023-01-18T19:37:00.335Z,99136.22
2023-01-18T19:39:29.861Z,99144.65
2023-01-18T19:41:58.955Z,99151.72
2023-01-18T19:44:28.205Z,99153.61
2023-01-18T19:46:59.659Z,99156.80
2023-01-18T19:49:29.420Z,99160.06
2023-01-18T19:51:59.283Z,99167.12
2023-01-18T19:54:28.988Z,99176.92
2023-01-18T19:56:58.607Z,99183.98
2023-01-18T19:59:27.496Z,99193.56
2023-01-18T20:01:57.117Z,99171.91
2023-01-18T20:04:26.593Z,99184.66
2023-01-18T20:06:55.913Z,99205.39
2023-01-18T20:09:35.158Z,99205.50
2023-01-18T20:11:57.892Z,99217.19
2023-01-18T20:14:40.446Z,99226.14
2023-01-18T20:16:59.162Z,99240.88
2023-01-18T20:19:28.647Z,99251.20
2023-01-18T20:21:57.649Z,99253.09
2023-01-18T20:24:26.715Z,99255.21
2023-01-18T20:27:07.227Z,99254.06
2023-01-18T20:29:29.967Z,99255.66
2023-01-18T20:32:12.523Z,99249.25
2023-01-18T20:34:29.923Z,99266.72
2023-01-18T20:36:58.789Z,99281.98
2023-01-18T20:39:28.812Z,99285.24
2023-01-18T20:41:59.946Z,99279.77
2023-01-18T20:44:29.248Z,99283.25
2023-01-18T20:46:58.256Z,99291.67
2023-01-18T20:49:36.993Z,99297.89
2023-01-18T20:51:58.500Z,99291.18
2023-01-18T20:54:28.511Z,99293.30
2023-01-18T20:56:58.820Z,99296.16
2023-01-18T20:59:27.541Z,99297.95
2023-01-18T21:01:56.378Z,99299.53
2023-01-18T21:04:25.704Z,99304.16
2023-01-18T21:06:56.559Z,99302.48
2023-01-18T21:09:26.586Z,99304.91
2023-01-18T21:11:55.791Z,99294.41
2023-01-18T21:14:25.387Z,99300.41
2023-01-18T21:16:55.561Z,99298.31
2023-01-18T21:19:25.336Z,99296.86
2023-01-18T21:21:54.614Z,99309.90
2023-01-18T21:24:24.038Z,99313.91
2023-01-18T21:26:53.098Z,99312.75
2023-01-18T21:29:21.879Z,99314.33
2023-01-18T21:31:51.039Z,99324.64
2023-01-18T21:34:20.486Z,99330.19
2023-01-18T21:36:51.604Z,99336.08
2023-01-18T21:39:22.918Z,99347.22
2023-01-18T21:42:14.323Z,99351.84
2023-01-18T21:45:01.055Z,99357.11
2023-01-18T21:47:30.132Z,99354.49
2023-01-18T21:50:18.905Z,99363.95
2023-01-18T21:53:06.310Z,99364.69
2023-01-18T21:55:36.997Z,99360.50
2023-01-18T21:58:24.696Z,99364.39
2023-01-18T22:00:54.260Z,99358.30
2023-01-18T22:03:22.910Z,99366.70
2023-01-18T22:05:52.999Z,99359.98
2023-01-18T22:08:21.911Z,99366.70
2023-01-18T22:10:51.404Z,99363.34
2023-01-18T22:13:21.411Z,99372.27
2023-01-18T22:15:51.400Z,99381.09
2023-01-18T22:18:20.171Z,99378.38
2023-01-18T22:20:56.187Z,99385.50
2023-01-18T22:23:26.311Z,99391.87
2023-01-18T22:25:55.735Z,99394.77
2023-01-18T22:28:24.844Z,99414.17
2023-01-18T22:30:54.027Z,99416.04
2023-01-18T22:33:24.509Z,99424.09
2023-01-18T22:35:58.552Z,99422.70
2023-01-18T22:38:27.231Z,99417.23
2023-01-18T22:41:06.838Z,99428.44
2023-01-18T22:43:36.048Z,99427.74
2023-01-18T22:46:06.031Z,99427.48
2023-01-18T22:48:37.113Z,99446.09
2023-01-18T22:51:07.222Z,99453.08
2023-01-18T22:53:38.833Z,99459.01
2023-01-18T22:56:11.840Z,99460.45
2023-01-18T22:58:40.803Z,99455.48
2023-01-18T23:01:21.182Z,99450.19
2023-01-18T23:03:50.459Z,99444.14
2023-01-18T23:06:19.933Z,99432.68
2023-01-18T23:08:48.591Z,99442.48
2023-01-18T23:11:25.962Z,99448.84
2023-01-18T23:14:16.003Z,99456.77
2023-01-18T23:17:03.877Z,99462.69
2023-01-18T23:19:34.392Z,99459.58
2023-01-18T23:22:05.417Z,99461.86
2023-01-18T23:24:38.436Z,99464.33
2023-01-18T23:27:09.893Z,99479.04
2023-01-18T23:29:39.945Z,99478.78
2023-01-18T23:32:09.529Z,99491.29
2023-01-18T23:34:40.699Z,99511.41
2023-01-18T23:37:12.361Z,99529.16
2023-01-18T23:39:59.810Z,99529.41
2023-01-18T23:42:47.359Z,99535.23
2023-01-18T23:45:35.419Z,99561.46
2023-01-18T23:48:30.389Z,99574.80
2023-01-18T23:51:17.721Z,99577.23
2023-01-18T23:54:06.200Z,99589.48
2023-01-18T23:56:36.655Z,99586.38
2023-01-18T23:59:05.262Z,99586.05
